Time;durP1;ratioP1;P1;durP2;ratioP2;P2;SDS_P1;SDS_P2;PMS_P1;PMS_P2;Temp;Humidity;BMP_temperature;BMP_pressure;BME280_temperature;BME280_humidity;BME280_pressure;Samples;Min_cycle;Max_cycle;Signal;HPM_P1;HPM_P2
2023/03/16 00:01:21;;;;;;;9.30;6.63;;;;;;;;;;5097709;28;20200;-68
2023/03/16 00:03:47;;;;;;;8.30;7.13;;;;;;;;;;5100356;28;20208;-67
2023/03/16 00:06:15;;;;;;;7.80;7.15;;;;;;;;;;5095939;28;20245;-67
2023/03/16 00:08:42;;;;;;;7.97;6.78;;;;;;;;;;5082661;28;20834;-67
2023/03/16 00:11:08;;;;;;;8.38;7.10;;;;;;;;;;5090605;28;20224;-67
2023/03/16 00:13:34;;;;;;;8.50;7.38;;;;;;;;;;5089401;28;20203;-66
2023/03/16 00:16:03;;;;;;;9.50;8.20;;;;;;;;;;5100478;28;20211;-68
2023/03/16 00:18:30;;;;;;;11.70;8.10;;;;;;;;;;5098972;28;20203;-68
2023/03/16 00:20:58;;;;;;;8.70;7.80;;;;;;;;;;5097315;28;20204;-67
2023/03/16 00:23:26;;;;;;;11.65;7.45;;;;;;;;;;5094963;28;20550;-67
2023/03/16 00:25:54;;;;;;;9.48;7.80;;;;;;;;;;5096449;28;20207;-67
2023/03/16 00:28:20;;;;;;;8.63;7.82;;;;;;;;;;5099736;28;20223;-67
2023/03/16 00:30:47;;;;;;;8.23;7.47;;;;;;;;;;5099722;28;20562;-67
2023/03/16 00:33:13;;;;;;;8.65;7.22;;;;;;;;;;5096845;28;20214;-67
2023/03/16 00:35:49;;;;;;;9.25;6.53;;;;;;;;;;5085359;28;20275;-68
2023/03/16 00:38:15;;;;;;;7.82;7.03;;;;;;;;;;5094410;28;20203;-67
2023/03/16 00:40:42;;;;;;;7.10;6.38;;;;;;;;;;5098455;28;20203;-67
2023/03/16 00:43:09;;;;;;;7.70;6.88;;;;;;;;;;5101504;28;20199;-67
2023/03/16 00:45:36;;;;;;;7.30;6.40;;;;;;;;;;5102863;28;20196;-67
2023/03/16 00:48:02;;;;;;;7.30;6.65;;;;;;;;;;5102597;28;20200;-67
2023/03/16 00:50:28;;;;;;;7.93;6.78;;;;;;;;;;5101424;28;20212;-68
2023/03/16 00:52:55;;;;;;;8.85;6.53;;;;;;;;;;5092670;28;20430;-68
2023/03/16 00:55:21;;;;;;;8.55;7.15;;;;;;;;;;5093036;28;20283;-68
2023/03/16 00:57:49;;;;;;;6.93;6.25;;;;;;;;;;5090801;28;20203;-68
2023/03/16 01:00:15;;;;;;;6.88;5.72;;;;;;;;;;5082340;28;20398;-68
2023/03/16 01:02:44;;;;;;;9.10;6.32;;;;;;;;;;5082731;28;20200;-68
2023/03/16 01:05:11;;;;;;;6.68;6.07;;;;;;;;;;5082317;28;20223;-68
2023/03/16 01:07:37;;;;;;;6.35;5.85;;;;;;;;;;5082464;28;20196;-68
2023/03/16 01:10:04;;;;;;;7.30;5.80;;;;;;;;;;5081842;28;20204;-68
2023/03/16 01:12:31;;;;;;;6.78;6.13;;;;;;;;;;5082161;28;20196;-68
2023/03/16 01:14:58;;;;;;;6.40;5.70;;;;;;;;;;5082455;28;20222;-68
2023/03/16 01:17:25;;;;;;;6.40;5.68;;;;;;;;;;5082236;28;20197;-68
2023/03/16 01:19:51;;;;;;;7.15;6.35;;;;;;;;;;5081880;28;20196;-68
2023/03/16 01:22:18;;;;;;;7.30;6.60;;;;;;;;;;5082163;28;20192;-68
2023/03/16 01:24:45;;;;;;;7.03;6.32;;;;;;;;;;5082600;28;20201;-68
2023/03/16 01:27:12;;;;;;;9.70;6.93;;;;;;;;;;5081668;28;20196;-68
2023/03/16 01:29:39;;;;;;;7.28;6.68;;;;;;;;;;5082110;28;20208;-68
2023/03/16 01:32:07;;;;;;;7.90;7.07;;;;;;;;;;5081926;28;20264;-68
2023/03/16 01:34:34;;;;;;;8.55;7.75;;;;;;;;;;5081986;28;20503;-68
2023/03/16 01:37:01;;;;;;;10.95;8.25;;;;;;;;;;5082333;28;20503;-68
2023/03/16 01:39:27;;;;;;;9.70;8.18;;;;;;;;;;5082029;28;20203;-68
2023/03/16 01:41:53;;;;;;;9.63;7.82;;;;;;;;;;5082139;28;20192;-68
2023/03/16 01:44:23;;;;;;;9.88;8.88;;;;;;;;;;5082335;28;20196;-68
2023/03/16 01:46:49;;;;;;;11.70;8.82;;;;;;;;;;5081619;28;20414;-68
2023/03/16 01:49:20;;;;;;;9.82;8.68;;;;;;;;;;5081799;28;20204;-68
2023/03/16 01:51:49;;;;;;;9.25;8.30;;;;;;;;;;5082299;28;20532;-68
2023/03/16 01:54:20;;;;;;;11.48;9.20;;;;;;;;;;5082359;28;20267;-68
2023/03/16 01:56:50;;;;;;;11.63;8.88;;;;;;;;;;5081980;28;20216;-68
2023/03/16 01:59:17;;;;;;;9.57;8.57;;;;;;;;;;5081746;28;20200;-68
2023/03/16 02:01:44;;;;;;;13.30;9.38;;;;;;;;;;5081986;28;20228;-68
2023/03/16 02:04:14;;;;;;;10.52;8.75;;;;;;;;;;5082285;28;20204;-68
2023/03/16 02:06:43;;;;;;;12.52;9.40;;;;;;;;;;5082261;28;20362;-68
2023/03/16 02:09:10;;;;;;;10.75;9.65;;;;;;;;;;5081520;28;20275;-68
2023/03/16 02:11:36;;;;;;;11.05;9.73;;;;;;;;;;5081746;28;20453;-68
2023/03/16 02:14:08;;;;;;;10.75;9.40;;;;;;;;;;5082103;28;20329;-68
2023/03/16 02:16:34;;;;;;;14.85;9.35;;;;;;;;;;5085261;28;20236;-68
2023/03/16 02:19:00;;;;;;;12.02;9.45;;;;;;;;;;5085152;28;20197;-68
2023/03/16 02:21:31;;;;;;;12.73;9.77;;;;;;;;;;5085429;28;20201;-68
2023/03/16 02:24:01;;;;;;;12.63;9.73;;;;;;;;;;5085657;28;20201;-68
2023/03/16 02:26:29;;;;;;;11.02;9.50;;;;;;;;;;5085179;28;20239;-68
2023/03/16 02:29:02;;;;;;;11.07;9.30;;;;;;;;;;5084916;28;20382;-68
2023/03/16 02:31:30;;;;;;;16.50;10.82;;;;;;;;;;5085167;28;20219;-68
2023/03/16 02:33:56;;;;;;;11.80;10.43;;;;;;;;;;5085080;28;20203;-68
2023/03/16 02:36:23;;;;;;;13.30;10.82;;;;;;;;;;5088080;28;20207;-68
2023/03/16 02:38:49;;;;;;;13.40;10.68;;;;;;;;;;5105670;28;20204;-68
2023/03/16 02:41:16;;;;;;;12.40;10.50;;;;;;;;;;5104841;28;20200;-68
2023/03/16 02:43:44;;;;;;;13.77;10.80;;;;;;;;;;5105017;28;20391;-68
2023/03/16 02:46:11;;;;;;;12.18;10.90;;;;;;;;;;5105175;28;20199;-68
2023/03/16 02:48:42;;;;;;;14.50;12.23;;;;;;;;;;5105327;28;20233;-68
2023/03/16 02:51:08;;;;;;;18.83;11.63;;;;;;;;;;5104685;28;20385;-68
2023/03/16 02:53:35;;;;;;;13.63;11.07;;;;;;;;;;5105151;28;20208;-68
2023/03/16 02:56:02;;;;;;;14.48;11.77;;;;;;;;;;5104840;28;20390;-68
2023/03/16 02:58:28;;;;;;;15.63;9.82;;;;;;;;;;5104740;28;20227;-68
2023/03/16 03:00:55;;;;;;;12.40;10.77;;;;;;;;;;5104598;28;20203;-68
2023/03/16 03:03:22;;;;;;;15.13;10.65;;;;;;;;;;5104625;28;20200;-68
2023/03/16 03:05:49;;;;;;;12.38;10.20;;;;;;;;;;5104976;28;20226;-68
2023/03/16 03:08:16;;;;;;;14.25;11.32;;;;;;;;;;5104614;28;20199;-68
2023/03/16 03:10:42;;;;;;;11.70;10.48;;;;;;;;;;5104237;28;20384;-68
2023/03/16 03:13:08;;;;;;;13.30;10.50;;;;;;;;;;5104336;28;20440;-68
2023/03/16 03:15:35;;;;;;;12.55;10.82;;;;;;;;;;5104987;28;20487;-68
2023/03/16 03:18:01;;;;;;;12.57;10.15;;;;;;;;;;5104248;28;20203;-68
2023/03/16 03:20:27;;;;;;;10.32;9.30;;;;;;;;;;5104370;28;20241;-68
2023/03/16 03:22:55;;;;;;;12.82;10.35;;;;;;;;;;5104271;28;20219;-68
2023/03/16 03:25:22;;;;;;;12.38;10.00;;;;;;;;;;5104258;28;20188;-68
2023/03/16 03:27:49;;;;;;;10.85;9.75;;;;;;;;;;5103058;28;20231;-68
2023/03/16 03:30:16;;;;;;;11.25;9.68;;;;;;;;;;5103993;28;20199;-68
2023/03/16 03:32:42;;;;;;;11.27;10.15;;;;;;;;;;5104154;28;20269;-68
2023/03/16 03:35:11;;;;;;;11.70;9.93;;;;;;;;;;5104366;28;20196;-68
2023/03/16 03:37:37;;;;;;;11.15;10.05;;;;;;;;;;5103776;28;20230;-68
2023/03/16 03:40:06;;;;;;;9.98;8.77;;;;;;;;;;5103939;28;20218;-68
2023/03/16 03:42:32;;;;;;;10.77;9.68;;;;;;;;;;5103944;28;20192;-68
2023/03/16 03:44:58;;;;;;;11.73;9.70;;;;;;;;;;5103946;28;20196;-68
2023/03/16 03:47:24;;;;;;;10.45;9.38;;;;;;;;;;5104106;28;20327;-68
2023/03/16 03:49:50;;;;;;;11.05;9.32;;;;;;;;;;5103949;28;20241;-68
2023/03/16 03:52:17;;;;;;;11.50;10.40;;;;;;;;;;5104034;28;20215;-68
2023/03/16 03:54:43;;;;;;;10.15;9.07;;;;;;;;;;5103717;28;20371;-68
2023/03/16 03:57:11;;;;;;;12.82;10.25;;;;;;;;;;5103685;28;20248;-68
2023/03/16 03:59:42;;;;;;;10.13;9.13;;;;;;;;;;5103281;28;20203;-68
2023/03/16 04:02:08;;;;;;;11.48;9.77;;;;;;;;;;5103790;28;20290;-68
2023/03/16 04:04:34;;;;;;;10.18;9.18;;;;;;;;;;5103660;28;20429;-68
2023/03/16 04:07:01;;;;;;;10.07;9.00;;;;;;;;;;5103594;28;20203;-68
2023/03/16 04:09:27;;;;;;;11.05;9.90;;;;;;;;;;5103161;28;20207;-68
2023/03/16 04:11:56;;;;;;;9.95;9.05;;;;;;;;;;5103254;28;20336;-68
2023/03/16 04:14:23;;;;;;;11.30;9.43;;;;;;;;;;5103430;28;20448;-68
2023/03/16 04:16:50;;;;;;;12.32;9.15;;;;;;;;;;5103456;28;20200;-68
2023/03/16 04:19:16;;;;;;;9.65;8.85;;;;;;;;;;5103035;28;20235;-68
2023/03/16 04:21:42;;;;;;;10.27;9.20;;;;;;;;;;5103447;28;20500;-68
2023/03/16 04:24:09;;;;;;;10.52;9.05;;;;;;;;;;5102929;28;20537;-68
2023/03/16 04:26:35;;;;;;;11.50;9.57;;;;;;;;;;5102990;28;20203;-68
2023/03/16 04:29:02;;;;;;;11.43;9.52;;;;;;;;;;5103274;28;20222;-68
2023/03/16 04:31:30;;;;;;;10.30;9.23;;;;;;;;;;5103225;28;20430;-68
2023/03/16 04:33:56;;;;;;;10.50;9.20;;;;;;;;;;5102870;28;20195;-68
2023/03/16 04:36:23;;;;;;;9.80;8.80;;;;;;;;;;5102822;28;20200;-68
2023/03/16 04:38:50;;;;;;;10.57;8.90;;;;;;;;;;5103028;28;20210;-68
2023/03/16 04:41:16;;;;;;;9.82;8.82;;;;;;;;;;5102940;28;20256;-68
2023/03/16 04:43:43;;;;;;;10.07;8.88;;;;;;;;;;5103004;28;20540;-68
2023/03/16 04:46:09;;;;;;;11.93;9.30;;;;;;;;;;5102790;28;20203;-68
2023/03/16 04:48:38;;;;;;;11.27;9.55;;;;;;;;;;5102878;28;20393;-68
2023/03/16 04:51:04;;;;;;;11.65;9.38;;;;;;;;;;5102445;28;20196;-68
2023/03/16 04:53:31;;;;;;;10.55;9.45;;;;;;;;;;5102541;28;20228;-68
2023/03/16 04:55:58;;;;;;;10.38;9.25;;;;;;;;;;5102901;28;20199;-68
2023/03/16 04:58:24;;;;;;;12.25;9.27;;;;;;;;;;5102664;28;20196;-68
2023/03/16 05:00:51;;;;;;;10.48;9.25;;;;;;;;;;5102565;28;20498;-68
2023/03/16 05:03:17;;;;;;;12.10;8.60;;;;;;;;;;5102999;28;20513;-68
2023/03/16 05:05:45;;;;;;;10.45;9.25;;;;;;;;;;5102697;28;20203;-68
2023/03/16 05:08:12;;;;;;;11.70;9.80;;;;;;;;;;5102571;28;20248;-68
2023/03/16 05:10:38;;;;;;;13.65;10.77;;;;;;;;;;5102404;28;20210;-68
2023/03/16 05:13:05;;;;;;;12.13;9.73;;;;;;;;;;5102870;28;20219;-68
2023/03/16 05:15:32;;;;;;;14.57;11.50;;;;;;;;;;5102907;28;20195;-68
2023/03/16 05:17:58;;;;;;;14.95;12.90;;;;;;;;;;5102467;28;20199;-69
2023/03/16 05:20:24;;;;;;;17.40;13.50;;;;;;;;;;5102535;28;20207;-69
2023/03/16 05:22:52;;;;;;;17.42;13.30;;;;;;;;;;5102455;28;20192;-69
2023/03/16 05:25:19;;;;;;;17.13;14.30;;;;;;;;;;5102857;28;20241;-69
2023/03/16 05:27:46;;;;;;;17.33;13.77;;;;;;;;;;5102805;28;20559;-69
2023/03/16 05:30:15;;;;;;;17.10;14.43;;;;;;;;;;5102854;28;20202;-69
2023/03/16 05:32:41;;;;;;;18.75;13.55;;;;;;;;;;5102539;28;20282;-69
2023/03/16 05:35:08;;;;;;;19.10;12.82;;;;;;;;;;5102539;28;20196;-69
2023/03/16 05:37:36;;;;;;;15.32;11.32;;;;;;;;;;5102705;28;20195;-69
2023/03/16 05:40:11;;;;;;;13.43;11.35;;;;;;;;;;5102631;28;20200;-69
2023/03/16 05:42:38;;;;;;;15.32;10.82;;;;;;;;;;5102461;28;20198;-69
2023/03/16 05:45:05;;;;;;;12.60;11.07;;;;;;;;;;5102602;28;20200;-69
2023/03/16 05:47:31;;;;;;;13.80;10.70;;;;;;;;;;5102292;28;20262;-69
2023/03/16 05:49:57;;;;;;;12.30;10.90;;;;;;;;;;5103440;28;20535;-69
2023/03/16 05:52:24;;;;;;;12.18;10.90;;;;;;;;;;5106170;28;20545;-69
2023/03/16 05:54:50;;;;;;;15.50;11.63;;;;;;;;;;5106214;28;20230;-69
2023/03/16 05:57:18;;;;;;;13.00;10.25;;;;;;;;;;5106322;28;20316;-69
2023/03/16 05:59:44;;;;;;;15.25;12.13;;;;;;;;;;5106420;28;20206;-69
2023/03/16 06:02:11;;;;;;;12.85;10.73;;;;;;;;;;5105800;28;20192;-69
2023/03/16 06:04:37;;;;;;;13.43;11.13;;;;;;;;;;5106110;28;20202;-69
2023/03/16 06:07:03;;;;;;;14.07;10.88;;;;;;;;;;5105979;28;20203;-69
2023/03/16 06:09:29;;;;;;;13.45;11.23;;;;;;;;;;5105951;28;20210;-69
2023/03/16 06:11:56;;;;;;;15.13;11.20;;;;;;;;;;5105938;28;20228;-70
2023/03/16 06:14:23;;;;;;;13.38;11.00;;;;;;;;;;5105837;28;20518;-68
2023/03/16 06:16:51;;;;;;;14.25;11.65;;;;;;;;;;5105911;28;20215;-69
2023/03/16 06:19:17;;;;;;;14.32;12.07;;;;;;;;;;5105369;28;20203;-69
2023/03/16 06:21:43;;;;;;;18.80;11.98;;;;;;;;;;5105992;28;20204;-69
2023/03/16 06:24:09;;;;;;;15.65;12.10;;;;;;;;;;5105974;28;20196;-71
2023/03/16 06:26:36;;;;;;;17.33;12.25;;;;;;;;;;5105365;28;20195;-70
2023/03/16 06:29:02;;;;;;;18.27;13.32;;;;;;;;;;5105344;28;20392;-69
2023/03/16 06:31:30;;;;;;;15.85;11.90;;;;;;;;;;5105624;28;20200;-70
2023/03/16 06:33:56;;;;;;;20.58;13.30;;;;;;;;;;5105296;28;20215;-69
2023/03/16 06:36:22;;;;;;;19.23;13.82;;;;;;;;;;5105392;28;20196;-69
2023/03/16 06:38:49;;;;;;;19.45;13.77;;;;;;;;;;5105453;28;20517;-69
2023/03/16 06:41:15;;;;;;;20.20;13.85;;;;;;;;;;5105427;28;20196;-70
2023/03/16 06:43:41;;;;;;;16.27;12.85;;;;;;;;;;5105296;28;20192;-69
2023/03/16 06:46:08;;;;;;;18.83;14.15;;;;;;;;;;5105317;28;20202;-68
2023/03/16 06:48:35;;;;;;;21.65;14.73;;;;;;;;;;5105382;28;20219;-68
2023/03/16 06:51:02;;;;;;;21.17;15.60;;;;;;;;;;5105187;28;20439;-68
2023/03/16 06:53:28;;;;;;;23.33;16.02;;;;;;;;;;5105171;28;20265;-71
2023/03/16 06:55:54;;;;;;;30.75;17.50;;;;;;;;;;5105138;28;20203;-69
2023/03/16 06:58:21;;;;;;;22.20;16.92;;;;;;;;;;5104942;28;20196;-69
2023/03/16 07:00:47;;;;;;;27.42;17.40;;;;;;;;;;5104620;28;20196;-69
2023/03/16 07:03:13;;;;;;;22.20;16.95;;;;;;;;;;5093076;28;20465;-68
2023/03/16 07:05:41;;;;;;;24.15;16.80;;;;;;;;;;5088373;28;20250;-69
2023/03/16 07:08:08;;;;;;;25.83;17.45;;;;;;;;;;5089260;28;20242;-69
2023/03/16 07:10:34;;;;;;;26.23;17.60;;;;;;;;;;5090196;28;20275;-68
2023/03/16 07:13:00;;;;;;;28.50;17.08;;;;;;;;;;5091417;28;20220;-70
2023/03/16 07:15:27;;;;;;;27.67;17.80;;;;;;;;;;5089725;28;20204;-70
2023/03/16 07:17:54;;;;;;;21.50;15.73;;;;;;;;;;5094090;28;20211;-70
2023/03/16 07:20:20;;;;;;;23.35;16.88;;;;;;;;;;5097086;28;20211;-70
2023/03/16 07:22:48;;;;;;;22.95;16.52;;;;;;;;;;5097589;28;20448;-70
2023/03/16 07:25:14;;;;;;;22.90;16.15;;;;;;;;;;5098540;28;20211;-71
2023/03/16 07:27:42;;;;;;;22.58;15.75;;;;;;;;;;5099155;28;20247;-71
2023/03/16 07:30:10;;;;;;;27.30;16.83;;;;;;;;;;5096252;28;20212;-71
2023/03/16 07:32:37;;;;;;;20.98;15.43;;;;;;;;;;5096798;28;20228;-70
2023/03/16 07:35:03;;;;;;;23.08;16.95;;;;;;;;;;5091088;28;20203;-70
2023/03/16 07:37:30;;;;;;;30.73;17.60;;;;;;;;;;5098276;28;20211;-69
2023/03/16 07:39:58;;;;;;;21.25;15.93;;;;;;;;;;5097172;28;20212;-69
2023/03/16 07:42:24;;;;;;;21.92;15.35;;;;;;;;;;5097208;28;20216;-69
2023/03/16 07:44:51;;;;;;;21.17;16.35;;;;;;;;;;5096813;28;20215;-69
2023/03/16 07:47:17;;;;;;;22.05;15.32;;;;;;;;;;5095380;28;20212;-68
2023/03/16 07:49:44;;;;;;;24.90;15.10;;;;;;;;;;5096845;28;20219;-69
2023/03/16 07:52:12;;;;;;;18.60;14.43;;;;;;;;;;5097059;28;20219;-69
2023/03/16 07:54:38;;;;;;;18.60;14.00;;;;;;;;;;5097164;28;20218;-69
2023/03/16 07:57:06;;;;;;;20.23;13.82;;;;;;;;;;5097227;28;20304;-69
2023/03/16 07:59:32;;;;;;;18.98;14.10;;;;;;;;;;5096331;28;20210;-69
2023/03/16 08:01:58;;;;;;;17.52;13.82;;;;;;;;;;5096697;28;20211;-68
2023/03/16 08:04:25;;;;;;;18.58;12.95;;;;;;;;;;5097728;28;20207;-69
2023/03/16 08:06:54;;;;;;;18.33;12.38;;;;;;;;;;5096551;28;20226;-69
2023/03/16 08:09:20;;;;;;;17.75;13.07;;;;;;;;;;5095530;28;20250;-69
2023/03/16 08:11:46;;;;;;;15.77;11.70;;;;;;;;;;5096912;28;20532;-69
2023/03/16 08:14:14;;;;;;;16.13;11.68;;;;;;;;;;5096143;28;20458;-69
2023/03/16 08:16:40;;;;;;;13.50;11.20;;;;;;;;;;5096349;28;20238;-69
2023/03/16 08:19:07;;;;;;;13.20;11.02;;;;;;;;;;5096142;28;20303;-70
2023/03/16 08:21:35;;;;;;;10.75;9.65;;;;;;;;;;5096846;28;20280;-69
2023/03/16 08:24:01;;;;;;;11.52;10.25;;;;;;;;;;5097005;28;20214;-69
2023/03/16 08:26:28;;;;;;;11.98;10.45;;;;;;;;;;5097601;28;20537;-70
2023/03/16 08:28:54;;;;;;;11.10;9.93;;;;;;;;;;5096294;28;20249;-69
2023/03/16 08:31:24;;;;;;;13.55;9.30;;;;;;;;;;5096426;28;20475;-69
2023/03/16 08:33:50;;;;;;;11.88;9.68;;;;;;;;;;5095991;28;20227;-69
2023/03/16 08:36:17;;;;;;;10.77;8.55;;;;;;;;;;5096204;28;20558;-69
2023/03/16 08:38:45;;;;;;;9.15;8.25;;;;;;;;;;5096648;28;20250;-69
2023/03/16 08:41:12;;;;;;;9.70;8.70;;;;;;;;;;5096180;28;20247;-69
2023/03/16 08:43:39;;;;;;;11.82;9.55;;;;;;;;;;5096290;28;20523;-69
2023/03/16 08:46:05;;;;;;;10.23;8.98;;;;;;;;;;5096605;28;20280;-69
2023/03/16 08:48:33;;;;;;;10.23;8.90;;;;;;;;;;5096114;28;20222;-69
2023/03/16 08:51:01;;;;;;;10.10;8.32;;;;;;;;;;5096033;28;20211;-69
2023/03/16 08:53:28;;;;;;;13.35;8.95;;;;;;;;;;5097078;28;20231;-69
2023/03/16 08:56:00;;;;;;;9.27;8.45;;;;;;;;;;5096991;28;20208;-69
2023/03/16 08:58:29;;;;;;;9.65;8.30;;;;;;;;;;5096891;28;20215;-69
2023/03/16 09:00:55;;;;;;;11.02;8.48;;;;;;;;;;5076666;28;20207;-69
2023/03/16 09:03:21;;;;;;;8.18;7.22;;;;;;;;;;5089099;28;20382;-70
2023/03/16 09:05:49;;;;;;;9.95;8.35;;;;;;;;;;5096272;28;20291;-69
2023/03/16 09:08:17;;;;;;;13.27;8.02;;;;;;;;;;5096443;28;20211;-69
2023/03/16 09:10:43;;;;;;;9.45;7.95;;;;;;;;;;5095844;28;20516;-69
2023/03/16 09:13:09;;;;;;;10.23;7.95;;;;;;;;;;5096480;28;20259;-69
2023/03/16 09:15:36;;;;;;;7.40;6.70;;;;;;;;;;5095815;28;20220;-69
2023/03/16 09:18:03;;;;;;;10.32;7.38;;;;;;;;;;5095168;28;20211;-69
2023/03/16 09:20:29;;;;;;;10.77;7.22;;;;;;;;;;5095739;28;20287;-69
2023/03/16 09:22:57;;;;;;;9.80;7.07;;;;;;;;;;5096052;28;20211;-69
2023/03/16 09:25:24;;;;;;;9.57;7.45;;;;;;;;;;5099838;28;20211;-69
2023/03/16 09:27:51;;;;;;;7.63;6.65;;;;;;;;;;5100143;28;20554;-69
2023/03/16 09:30:18;;;;;;;7.50;6.80;;;;;;;;;;5100921;28;20527;-70
2023/03/16 09:32:47;;;;;;;7.55;6.70;;;;;;;;;;5100197;28;20293;-69
2023/03/16 09:35:13;;;;;;;7.50;6.35;;;;;;;;;;5099947;28;20541;-69
2023/03/16 09:37:40;;;;;;;7.43;6.40;;;;;;;;;;5100147;28;20531;-69
2023/03/16 09:40:21;;;;;;;8.27;6.30;;;;;;;;;;5100711;28;20396;-69
2023/03/16 09:42:53;;;;;;;7.65;6.50;;;;;;;;;;5100104;28;20219;-69
2023/03/16 09:45:23;;;;;;;6.93;6.18;;;;;;;;;;5100329;28;20257;-69
2023/03/16 09:47:51;;;;;;;6.90;6.15;;;;;;;;;;5099710;28;20239;-69
2023/03/16 09:50:21;;;;;;;6.53;5.68;;;;;;;;;;5098781;28;20218;-69
2023/03/16 09:52:52;;;;;;;11.13;6.10;;;;;;;;;;5099883;28;20216;-69
2023/03/16 09:55:25;;;;;;;5.72;5.22;;;;;;;;;;5100095;28;20215;-69
2023/03/16 09:57:52;;;;;;;6.72;5.13;;;;;;;;;;5099616;28;20212;-69
2023/03/16 10:00:20;;;;;;;5.53;5.07;;;;;;;;;;5098729;28;20426;-69
2023/03/16 10:03:17;;;;;;;6.60;5.07;;;;;;;;;;5099524;28;20518;-69
2023/03/16 10:05:43;;;;;;;8.45;4.80;;;;;;;;;;5036436;28;20239;-69
2023/03/16 10:08:13;;;;;;;5.07;4.55;;;;;;;;;;5073376;28;20253;-69
2023/03/16 10:10:48;;;;;;;5.60;4.20;;;;;;;;;;5099474;28;20221;-69
2023/03/16 10:13:18;;;;;;;5.22;4.47;;;;;;;;;;5099352;28;20227;-69
2023/03/16 10:15:45;;;;;;;4.30;3.80;;;;;;;;;;5099102;28;20216;-69
2023/03/16 10:18:15;;;;;;;4.20;3.85;;;;;;;;;;5098806;28;20456;-69
2023/03/16 10:20:44;;;;;;;3.85;3.45;;;;;;;;;;5099333;28;20249;-69
2023/03/16 10:23:16;;;;;;;4.57;4.18;;;;;;;;;;5099626;28;20214;-70
2023/03/16 10:25:46;;;;;;;6.13;4.15;;;;;;;;;;5099143;28;20442;-70
2023/03/16 10:28:13;;;;;;;4.28;3.90;;;;;;;;;;5099064;28;20272;-70
2023/03/16 10:30:40;;;;;;;6.95;3.65;;;;;;;;;;5099350;28;20878;-70
2023/03/16 10:33:14;;;;;;;22.77;14.30;;;;;;;;;;5098522;28;20211;-69
2023/03/16 10:35:43;;;;;;;6.07;4.72;;;;;;;;;;5098258;28;20237;-61
2023/03/16 10:38:25;;;;;;;5.45;3.80;;;;;;;;;;5099522;28;20212;-61
2023/03/16 10:40:53;;;;;;;4.57;3.72;;;;;;;;;;5097634;28;20211;-60
2023/03/16 10:43:19;;;;;;;3.65;3.15;;;;;;;;;;5097307;28;20212;-60
2023/03/16 10:45:46;;;;;;;5.55;3.42;;;;;;;;;;5097491;28;20242;-59
2023/03/16 10:48:13;;;;;;;3.38;3.17;;;;;;;;;;5097836;28;20211;-59
2023/03/16 10:50:41;;;;;;;4.07;3.15;;;;;;;;;;5097102;28;20212;-61
2023/03/16 10:53:15;;;;;;;3.50;3.30;;;;;;;;;;5096579;28;20218;-60
2023/03/16 10:55:44;;;;;;;3.03;2.83;;;;;;;;;;5098575;28;20211;-60
2023/03/16 10:58:22;;;;;;;4.72;3.17;;;;;;;;;;5097828;28;20268;-60
2023/03/16 11:00:48;;;;;;;4.55;2.60;;;;;;;;;;5098526;28;20210;-60
2023/03/16 11:03:21;;;;;;;3.00;2.80;;;;;;;;;;5093404;28;20274;-61
2023/03/16 11:05:48;;;;;;;3.30;2.92;;;;;;;;;;5086277;28;20222;-61
2023/03/16 11:08:15;;;;;;;2.70;2.50;;;;;;;;;;5085686;28;20240;-61
2023/03/16 11:10:43;;;;;;;3.03;2.88;;;;;;;;;;5085495;28;20215;-60
2023/03/16 11:13:12;;;;;;;3.15;3.03;;;;;;;;;;5086251;28;20204;-61
2023/03/16 11:15:42;;;;;;;2.75;2.55;;;;;;;;;;5088174;28;20379;-61
2023/03/16 11:18:16;;;;;;;2.78;2.50;;;;;;;;;;5084903;28;20593;-60
2023/03/16 11:20:43;;;;;;;2.67;2.58;;;;;;;;;;5077716;28;20220;-60
2023/03/16 11:23:11;;;;;;;3.00;2.75;;;;;;;;;;5078626;28;20500;-60
2023/03/16 11:25:41;;;;;;;2.97;2.78;;;;;;;;;;5097384;28;20208;-60
2023/03/16 11:28:13;;;;;;;4.28;2.63;;;;;;;;;;5097023;28;20227;-60
2023/03/16 11:30:42;;;;;;;2.50;2.42;;;;;;;;;;5097139;28;20207;-60
2023/03/16 11:33:09;;;;;;;3.50;2.60;;;;;;;;;;5096975;28;20233;-60
2023/03/16 11:35:39;;;;;;;2.78;2.45;;;;;;;;;;5096585;28;20230;-60
2023/03/16 11:38:10;;;;;;;2.90;2.78;;;;;;;;;;5096805;28;20487;-60
2023/03/16 11:40:40;;;;;;;3.13;2.75;;;;;;;;;;5096779;28;20203;-60
2023/03/16 11:43:15;;;;;;;3.28;2.20;;;;;;;;;;5096598;28;20542;-60
2023/03/16 11:45:47;;;;;;;2.50;2.30;;;;;;;;;;5096797;28;20447;-59
2023/03/16 11:48:21;;;;;;;2.42;2.22;;;;;;;;;;5082909;28;20226;-60
2023/03/16 11:50:53;;;;;;;3.30;2.83;;;;;;;;;;5096334;28;20413;-59
2023/03/16 11:53:26;;;;;;;3.50;1.95;;;;;;;;;;5096264;28;20220;-62
2023/03/16 11:55:57;;;;;;;4.82;2.40;;;;;;;;;;5088833;28;20260;-60
2023/03/16 11:58:33;;;;;;;3.33;2.33;;;;;;;;;;5095568;28;20212;-61
2023/03/16 12:01:07;;;;;;;2.25;2.15;;;;;;;;;;5095171;28;20450;-60
2023/03/16 12:03:53;;;;;;;2.50;2.30;;;;;;;;;;5085763;28;20218;-62
2023/03/16 12:06:24;;;;;;;2.42;2.25;;;;;;;;;;5095599;28;20273;-60
2023/03/16 12:09:05;;;;;;;2.55;2.30;;;;;;;;;;5095706;28;20227;-60
2023/03/16 12:11:34;;;;;;;2.45;2.30;;;;;;;;;;5096395;28;20302;-59
2023/03/16 12:14:05;;;;;;;3.47;2.40;;;;;;;;;;5095921;28;20227;-59
2023/03/16 12:16:34;;;;;;;3.70;2.40;;;;;;;;;;5095377;28;20212;-59
2023/03/16 12:19:02;;;;;;;2.88;2.53;;;;;;;;;;5094720;28;20276;-59
2023/03/16 12:21:31;;;;;;;2.63;2.28;;;;;;;;;;5095891;28;20216;-59
2023/03/16 12:24:00;;;;;;;2.88;2.60;;;;;;;;;;5095919;28;20530;-59
2023/03/16 12:26:29;;;;;;;2.38;2.17;;;;;;;;;;5096074;28;20296;-59
2023/03/16 12:28:56;;;;;;;2.13;2.03;;;;;;;;;;5095419;28;20227;-59
2023/03/16 12:31:23;;;;;;;2.55;2.30;;;;;;;;;;5095513;28;20303;-59
2023/03/16 12:34:09;;;;;;;3.97;2.42;;;;;;;;;;5095127;28;20224;-59
2023/03/16 12:36:45;;;;;;;2.40;2.20;;;;;;;;;;5094359;28;20195;-58
2023/03/16 12:39:15;;;;;;;3.13;2.92;;;;;;;;;;5082934;28;20203;-58
2023/03/16 12:41:48;;;;;;;3.08;2.88;;;;;;;;;;5093943;28;20208;-59
2023/03/16 12:44:16;;;;;;;2.75;2.20;;;;;;;;;;5092473;28;20207;-59
2023/03/16 12:46:47;;;;;;;2.92;2.65;;;;;;;;;;5094773;28;20227;-59
2023/03/16 12:49:15;;;;;;;2.25;2.10;;;;;;;;;;5094721;28;20211;-59
2023/03/16 12:51:42;;;;;;;2.45;2.25;;;;;;;;;;5094225;28;20199;-59
2023/03/16 12:54:17;;;;;;;2.55;2.40;;;;;;;;;;5095976;28;20239;-59
2023/03/16 12:56:45;;;;;;;3.35;2.50;;;;;;;;;;5095524;28;20203;-60
2023/03/16 12:59:16;;;;;;;3.92;2.60;;;;;;;;;;5094833;28;20207;-60
2023/03/16 13:01:43;;;;;;;4.25;2.53;;;;;;;;;;5091826;28;20208;-59
2023/03/16 13:04:12;;;;;;;2.70;1.92;;;;;;;;;;5089243;28;20241;-59
2023/03/16 13:06:43;;;;;;;3.70;2.53;;;;;;;;;;5082663;28;20208;-58
2023/03/16 13:09:11;;;;;;;4.30;2.58;;;;;;;;;;5086849;28;20212;-59
2023/03/16 13:11:41;;;;;;;3.60;2.78;;;;;;;;;;5087773;28;20212;-59
2023/03/16 13:14:09;;;;;;;3.05;2.25;;;;;;;;;;5095461;28;20592;-59
2023/03/16 13:16:36;;;;;;;2.63;2.42;;;;;;;;;;5095547;28;20465;-60
2023/03/16 13:19:16;;;;;;;2.63;2.33;;;;;;;;;;5094547;28;20479;-59
2023/03/16 13:21:44;;;;;;;3.03;2.83;;;;;;;;;;5096120;28;20214;-59
2023/03/16 13:24:21;;;;;;;4.85;2.58;;;;;;;;;;5095669;28;20214;-60
2023/03/16 13:26:48;;;;;;;2.55;2.45;;;;;;;;;;5094677;28;20287;-60
2023/03/16 13:29:21;;;;;;;2.78;2.30;;;;;;;;;;5094948;28;20277;-61
2023/03/16 13:31:48;;;;;;;3.88;3.00;;;;;;;;;;5095317;28;20283;-61
2023/03/16 13:34:18;;;;;;;2.80;2.28;;;;;;;;;;5094581;28;20399;-61
2023/03/16 13:36:46;;;;;;;3.53;2.58;;;;;;;;;;5095223;28;20212;-61
2023/03/16 13:39:14;;;;;;;3.40;2.40;;;;;;;;;;5094962;28;20216;-61
2023/03/16 13:41:41;;;;;;;3.03;2.42;;;;;;;;;;5095058;28;20218;-61
2023/03/16 13:44:12;;;;;;;4.60;2.47;;;;;;;;;;5094855;28;20452;-60
2023/03/16 13:46:39;;;;;;;2.47;2.38;;;;;;;;;;5094151;28;20211;-60
2023/03/16 13:49:05;;;;;;;2.78;2.47;;;;;;;;;;5093490;28;20203;-60
2023/03/16 13:51:34;;;;;;;2.80;2.53;;;;;;;;;;5094437;28;20231;-60
2023/03/16 13:54:05;;;;;;;2.70;2.50;;;;;;;;;;5094090;28;20219;-61
2023/03/16 13:56:32;;;;;;;3.40;3.08;;;;;;;;;;5094846;28;20207;-61
2023/03/16 13:59:00;;;;;;;4.13;2.50;;;;;;;;;;5095583;28;20275;-61
2023/03/16 14:01:27;;;;;;;3.13;2.63;;;;;;;;;;5094952;28;20215;-61
2023/03/16 14:03:55;;;;;;;2.90;2.70;;;;;;;;;;5095583;28;20531;-63
2023/03/16 14:06:24;;;;;;;2.90;2.65;;;;;;;;;;5095200;28;20387;-63
2023/03/16 14:08:52;;;;;;;2.67;2.47;;;;;;;;;;5095138;28;20458;-63
2023/03/16 14:11:20;;;;;;;3.90;3.00;;;;;;;;;;5096510;28;20203;-60
2023/03/16 14:13:51;;;;;;;4.03;3.10;;;;;;;;;;5095198;28;20204;-60
2023/03/16 14:16:19;;;;;;;3.17;3.00;;;;;;;;;;5098950;28;20238;-61
2023/03/16 14:18:47;;;;;;;3.03;2.83;;;;;;;;;;5098783;28;20216;-60
2023/03/16 14:21:15;;;;;;;2.83;2.63;;;;;;;;;;5099868;28;20210;-61
2023/03/16 14:23:43;;;;;;;3.45;3.13;;;;;;;;;;5098098;28;20211;-60
2023/03/16 14:26:12;;;;;;;3.75;3.08;;;;;;;;;;5098264;28;20543;-61
2023/03/16 14:28:40;;;;;;;3.15;2.95;;;;;;;;;;5095834;28;20224;-61
2023/03/16 14:31:09;;;;;;;3.28;3.00;;;;;;;;;;5097486;28;20276;-60
2023/03/16 14:33:36;;;;;;;3.20;3.00;;;;;;;;;;5098232;28;20211;-61
2023/03/16 14:36:13;;;;;;;3.35;3.10;;;;;;;;;;5097082;28;20231;-61
2023/03/16 14:38:40;;;;;;;5.72;3.47;;;;;;;;;;5097893;28;20237;-61